sensor_id;sensor_type;location;lat;lon;timestamp;pressure;altitude;pressure_sealevel;temperature;humidity
30618;BME280;17384;51.214;9.202;2023-03-23T00:01:13;97738.06;;;12.15;56.62
30618;BME280;17384;51.214;9.202;2023-03-23T00:03:40;97739.56;;;12.06;57.71
30618;BME280;17384;51.214;9.202;2023-03-23T00:06:07;97747.72;;;12.06;57.94
30618;BME280;17384;51.214;9.202;2023-03-23T00:08:38;97740.13;;;12.08;58.17
30618;BME280;17384;51.214;9.202;2023-03-23T00:11:17;97736.53;;;12.02;58.51
30618;BME280;17384;51.214;9.202;2023-03-23T00:13:48;97728.81;;;11.94;58.90
30618;BME280;17384;51.214;9.202;2023-03-23T00:16:17;97743.41;;;11.88;59.24
30618;BME280;17384;51.214;9.202;2023-03-23T00:18:47;97746.28;;;11.81;60.39
30618;BME280;17384;51.214;9.202;2023-03-23T00:21:15;97751.06;;;11.74;60.31
30618;BME280;17384;51.214;9.202;2023-03-23T00:23:40;97743.81;;;11.63;61.42
30618;BME280;17384;51.214;9.202;2023-03-23T00:26:10;97754.50;;;11.53;61.99
30618;BME280;17384;51.214;9.202;2023-03-23T00:28:36;97743.25;;;11.44;62.72
30618;BME280;17384;51.214;9.202;2023-03-23T00:31:04;97742.25;;;11.34;64.64
30618;BME280;17384;51.214;9.202;2023-03-23T00:33:33;97754.50;;;11.19;64.59
30618;BME280;17384;51.214;9.202;2023-03-23T00:36:07;97742.16;;;11.12;65.36
30618;BME280;17384;51.214;9.202;2023-03-23T00:38:34;97743.59;;;11.03;65.92
30618;BME280;17384;51.214;9.202;2023-03-23T00:41:00;97721.47;;;10.94;66.64
30618;BME280;17384;51.214;9.202;2023-03-23T00:43:27;97718.34;;;10.85;66.91
30618;BME280;17384;51.214;9.202;2023-03-23T00:45:55;97711.50;;;10.83;67.23
30618;BME280;17384;51.214;9.202;2023-03-23T00:48:22;97712.72;;;10.75;68.09
30618;BME280;17384;51.214;9.202;2023-03-23T00:50:48;97708.03;;;10.71;68.21
30618;BME280;17384;51.214;9.202;2023-03-23T00:53:14;97708.59;;;10.73;68.19
30618;BME280;17384;51.214;9.202;2023-03-23T00:55:45;97698.47;;;10.68;68.05
30618;BME280;17384;51.214;9.202;2023-03-23T00:58:11;97694.94;;;10.68;67.48
30618;BME280;17384;51.214;9.202;2023-03-23T01:00:37;97697.09;;;10.66;67.73
30618;BME280;17384;51.214;9.202;2023-03-23T01:03:04;97690.56;;;10.67;66.87
30618;BME280;17384;51.214;9.202;2023-03-23T01:05:37;97701.44;;;10.67;66.67
30618;BME280;17384;51.214;9.202;2023-03-23T01:08:04;97680.31;;;10.69;66.68
30618;BME280;17384;51.214;9.202;2023-03-23T01:10:30;97699.50;;;10.79;65.83
30618;BME280;17384;51.214;9.202;2023-03-23T01:13:01;97697.38;;;10.81;65.77
30618;BME280;17384;51.214;9.202;2023-03-23T01:15:28;97682.50;;;10.83;65.74
30618;BME280;17384;51.214;9.202;2023-03-23T01:17:54;97705.03;;;10.84;65.75
30618;BME280;17384;51.214;9.202;2023-03-23T01:20:20;97706.59;;;10.97;64.48
30618;BME280;17384;51.214;9.202;2023-03-23T01:22:45;97700.09;;;10.98;65.52
30618;BME280;17384;51.214;9.202;2023-03-23T01:25:12;97689.47;;;10.96;65.19
30618;BME280;17384;51.214;9.202;2023-03-23T01:27:39;97715.31;;;10.99;65.16
30618;BME280;17384;51.214;9.202;2023-03-23T01:30:05;97692.78;;;10.98;64.99
30618;BME280;17384;51.214;9.202;2023-03-23T01:32:32;97676.97;;;10.95;65.18
30618;BME280;17384;51.214;9.202;2023-03-23T01:34:58;97673.19;;;10.96;65.43
30618;BME280;17384;51.214;9.202;2023-03-23T01:37:24;97667.19;;;10.94;64.67
30618;BME280;17384;51.214;9.202;2023-03-23T01:39:54;97674.78;;;10.92;65.18
30618;BME280;17384;51.214;9.202;2023-03-23T01:42:30;97681.53;;;10.90;65.41
30618;BME280;17384;51.214;9.202;2023-03-23T01:47:52;97666.13;;;10.95;65.56
30618;BME280;17384;51.214;9.202;2023-03-23T01:50:21;97677.97;;;10.89;65.71
30618;BME280;17384;51.214;9.202;2023-03-23T01:52:50;97673.03;;;10.86;66.00
30618;BME280;17384;51.214;9.202;2023-03-23T01:55:18;97686.13;;;10.89;66.00
30618;BME280;17384;51.214;9.202;2023-03-23T01:57:44;97687.69;;;10.85;66.52
30618;BME280;17384;51.214;9.202;2023-03-23T02:00:11;97670.09;;;10.88;66.45
30618;BME280;17384;51.214;9.202;2023-03-23T02:02:41;97673.53;;;10.83;66.29
30618;BME280;17384;51.214;9.202;2023-03-23T02:05:12;97682.50;;;10.83;66.56
30618;BME280;17384;51.214;9.202;2023-03-23T02:07:38;97682.41;;;10.78;67.04
30618;BME280;17384;51.214;9.202;2023-03-23T02:10:04;97682.72;;;10.82;66.73
30618;BME280;17384;51.214;9.202;2023-03-23T02:12:30;97678.38;;;10.81;67.04
30618;BME280;17384;51.214;9.202;2023-03-23T02:14:55;97662.81;;;10.76;67.46
30618;BME280;17384;51.214;9.202;2023-03-23T02:17:36;97674.66;;;10.70;67.71
30618;BME280;17384;51.214;9.202;2023-03-23T02:23:22;97678.66;;;10.68;68.57
30618;BME280;17384;51.214;9.202;2023-03-23T02:33:55;97680.25;;;10.64;69.95
30618;BME280;17384;51.214;9.202;2023-03-23T02:36:29;97664.13;;;10.57;70.52
30618;BME280;17384;51.214;9.202;2023-03-23T02:41:29;97663.78;;;10.54;70.41
30618;BME280;17384;51.214;9.202;2023-03-23T02:43:56;97669.19;;;10.54;70.62
30618;BME280;17384;51.214;9.202;2023-03-23T02:46:23;97674.03;;;10.51;71.06
30618;BME280;17384;51.214;9.202;2023-03-23T02:48:53;97666.38;;;10.48;71.11
30618;BME280;17384;51.214;9.202;2023-03-23T02:51:22;97656.03;;;10.45;71.50
30618;BME280;17384;51.214;9.202;2023-03-23T02:53:50;97662.16;;;10.41;71.74
30618;BME280;17384;51.214;9.202;2023-03-23T02:56:17;97642.88;;;10.37;72.08
30618;BME280;17384;51.214;9.202;2023-03-23T02:58:44;97654.69;;;10.31;72.61
30618;BME280;17384;51.214;9.202;2023-03-23T03:03:59;97661.16;;;10.30;72.94
30618;BME280;17384;51.214;9.202;2023-03-23T03:09:09;97671.19;;;10.18;74.05
30618;BME280;17384;51.214;9.202;2023-03-23T03:11:42;97657.53;;;10.13;74.63
30618;BME280;17384;51.214;9.202;2023-03-23T03:14:19;97663.44;;;10.10;74.19
30618;BME280;17384;51.214;9.202;2023-03-23T03:17:20;97670.25;;;10.12;74.96
30618;BME280;17384;51.214;9.202;2023-03-23T03:19:51;97673.13;;;10.06;75.24
30618;BME280;17384;51.214;9.202;2023-03-23T03:22:20;97661.59;;;9.99;75.98
30618;BME280;17384;51.214;9.202;2023-03-23T03:24:47;97664.66;;;9.91;75.83
30618;BME280;17384;51.214;9.202;2023-03-23T03:27:18;97657.59;;;9.90;76.85
30618;BME280;17384;51.214;9.202;2023-03-23T03:29:48;97669.41;;;9.83;76.73
30618;BME280;17384;51.214;9.202;2023-03-23T03:32:19;97683.44;;;9.80;77.39
30618;BME280;17384;51.214;9.202;2023-03-23T03:34:46;97670.81;;;9.74;77.63
30618;BME280;17384;51.214;9.202;2023-03-23T03:37:13;97680.97;;;9.67;78.66
30618;BME280;17384;51.214;9.202;2023-03-23T03:39:39;97678.13;;;9.62;78.98
30618;BME280;17384;51.214;9.202;2023-03-23T03:42:05;97662.03;;;9.56;78.98
30618;BME280;17384;51.214;9.202;2023-03-23T03:44:32;97684.41;;;9.51;80.12
30618;BME280;17384;51.214;9.202;2023-03-23T03:46:58;97679.69;;;9.46;80.31
30618;BME280;17384;51.214;9.202;2023-03-23T03:49:23;97676.38;;;9.44;80.16
30618;BME280;17384;51.214;9.202;2023-03-23T03:51:49;97684.97;;;9.41;81.02
30618;BME280;17384;51.214;9.202;2023-03-23T03:54:14;97695.44;;;9.38;81.05
30618;BME280;17384;51.214;9.202;2023-03-23T03:56:41;97695.09;;;9.34;81.84
30618;BME280;17384;51.214;9.202;2023-03-23T03:59:07;97687.69;;;9.30;81.87
30618;BME280;17384;51.214;9.202;2023-03-23T04:01:34;97685.47;;;9.27;82.22
30618;BME280;17384;51.214;9.202;2023-03-23T04:03:59;97690.03;;;9.26;82.70
30618;BME280;17384;51.214;9.202;2023-03-23T04:06:25;97705.91;;;9.23;82.89
30618;BME280;17384;51.214;9.202;2023-03-23T04:08:54;97701.34;;;9.23;82.99
30618;BME280;17384;51.214;9.202;2023-03-23T04:11:20;97683.44;;;9.22;83.16
30618;BME280;17384;51.214;9.202;2023-03-23T04:13:46;97697.66;;;9.18;83.78
30618;BME280;17384;51.214;9.202;2023-03-23T04:16:11;97706.84;;;9.16;83.65
30618;BME280;17384;51.214;9.202;2023-03-23T04:18:36;97696.72;;;9.12;83.88
30618;BME280;17384;51.214;9.202;2023-03-23T04:21:03;97693.06;;;9.06;84.04
30618;BME280;17384;51.214;9.202;2023-03-23T04:23:30;97691.19;;;9.07;84.17
30618;BME280;17384;51.214;9.202;2023-03-23T04:25:58;97690.00;;;9.03;84.60
30618;BME280;17384;51.214;9.202;2023-03-23T04:28:25;97689.66;;;8.99;85.03
30618;BME280;17384;51.214;9.202;2023-03-23T04:30:51;97693.41;;;8.98;84.78
30618;BME280;17384;51.214;9.202;2023-03-23T04:33:21;97687.88;;;8.93;85.33
30618;BME280;17384;51.214;9.202;2023-03-23T04:35:47;97687.75;;;8.88;85.85
30618;BME280;17384;51.214;9.202;2023-03-23T04:38:17;97687.97;;;8.87;86.31
30618;BME280;17384;51.214;9.202;2023-03-23T04:40:46;97681.97;;;8.85;86.16
30618;BME280;17384;51.214;9.202;2023-03-23T04:43:12;97680.91;;;8.74;86.62
30618;BME280;17384;51.214;9.202;2023-03-23T04:45:38;97665.13;;;8.71;87.15
30618;BME280;17384;51.214;9.202;2023-03-23T04:48:07;97664.69;;;8.74;87.18
30618;BME280;17384;51.214;9.202;2023-03-23T04:50:34;97664.19;;;8.65;87.19
30618;BME280;17384;51.214;9.202;2023-03-23T04:53:01;97660.59;;;8.53;88.15
30618;BME280;17384;51.214;9.202;2023-03-23T04:55:33;97680.34;;;8.54;88.57
30618;BME280;17384;51.214;9.202;2023-03-23T04:58:03;97669.09;;;8.57;88.26
30618;BME280;17384;51.214;9.202;2023-03-23T05:00:29;97678.81;;;8.46;88.77
30618;BME280;17384;51.214;9.202;2023-03-23T05:02:54;97669.16;;;8.50;88.54
30618;BME280;17384;51.214;9.202;2023-03-23T05:05:21;97661.78;;;8.45;89.23
30618;BME280;17384;51.214;9.202;2023-03-23T05:07:47;97668.56;;;8.48;89.03
30618;BME280;17384;51.214;9.202;2023-03-23T05:10:14;97673.75;;;8.49;88.96
30618;BME280;17384;51.214;9.202;2023-03-23T05:12:40;97665.78;;;8.55;88.46
30618;BME280;17384;51.214;9.202;2023-03-23T05:15:07;97674.50;;;8.57;88.14
30618;BME280;17384;51.214;9.202;2023-03-23T05:17:33;97658.50;;;8.55;88.53
30618;BME280;17384;51.214;9.202;2023-03-23T05:19:59;97668.34;;;8.49;88.55
30618;BME280;17384;51.214;9.202;2023-03-23T05:22:28;97669.09;;;8.57;88.48
30618;BME280;17384;51.214;9.202;2023-03-23T05:24:53;97679.06;;;8.56;88.46
30618;BME280;17384;51.214;9.202;2023-03-23T05:27:19;97686.59;;;8.54;88.58
30618;BME280;17384;51.214;9.202;2023-03-23T05:29:45;97686.34;;;8.56;88.52
30618;BME280;17384;51.214;9.202;2023-03-23T05:32:15;97689.28;;;8.54;88.25
30618;BME280;17384;51.214;9.202;2023-03-23T05:34:41;97682.00;;;8.55;88.52
30618;BME280;17384;51.214;9.202;2023-03-23T05:37:08;97687.88;;;8.52;88.44
30618;BME280;17384;51.214;9.202;2023-03-23T05:39:35;97691.91;;;8.61;87.29
30618;BME280;17384;51.214;9.202;2023-03-23T05:42:01;97685.44;;;8.62;87.67
30618;BME280;17384;51.214;9.202;2023-03-23T05:44:26;97704.72;;;8.65;87.67
30618;BME280;17384;51.214;9.202;2023-03-23T05:46:52;97694.28;;;8.69;87.57
30618;BME280;17384;51.214;9.202;2023-03-23T05:49:18;97686.03;;;8.64;87.64
30618;BME280;17384;51.214;9.202;2023-03-23T05:51:46;97692.19;;;8.71;87.29
30618;BME280;17384;51.214;9.202;2023-03-23T05:54:13;97693.81;;;8.72;87.25
30618;BME280;17384;51.214;9.202;2023-03-23T05:56:39;97696.31;;;8.73;86.68
30618;BME280;17384;51.214;9.202;2023-03-23T05:59:05;97679.59;;;8.76;86.68
30618;BME280;17384;51.214;9.202;2023-03-23T06:01:31;97698.66;;;8.81;86.47
30618;BME280;17384;51.214;9.202;2023-03-23T06:03:57;97683.03;;;8.83;86.44
30618;BME280;17384;51.214;9.202;2023-03-23T06:06:25;97676.41;;;8.68;86.72
30618;BME280;17384;51.214;9.202;2023-03-23T06:08:50;97656.66;;;8.67;87.20
30618;BME280;17384;51.214;9.202;2023-03-23T06:11:16;97674.91;;;8.72;86.68
30618;BME280;17384;51.214;9.202;2023-03-23T06:13:42;97686.78;;;8.71;86.65
30618;BME280;17384;51.214;9.202;2023-03-23T06:16:08;97691.13;;;8.72;87.09
30618;BME280;17384;51.214;9.202;2023-03-23T06:18:34;97695.34;;;8.68;87.32
30618;BME280;17384;51.214;9.202;2023-03-23T06:21:02;97690.53;;;8.70;87.43
30618;BME280;17384;51.214;9.202;2023-03-23T06:23:29;97697.81;;;8.69;87.21
30618;BME280;17384;51.214;9.202;2023-03-23T06:26:00;97687.38;;;8.73;87.13
30618;BME280;17384;51.214;9.202;2023-03-23T06:28:26;97679.13;;;8.79;87.27
30618;BME280;17384;51.214;9.202;2023-03-23T06:30:52;97690.69;;;8.87;86.96
30618;BME280;17384;51.214;9.202;2023-03-23T06:33:18;97695.06;;;8.99;86.56
30618;BME280;17384;51.214;9.202;2023-03-23T06:35:43;97680.00;;;9.03;86.27
30618;BME280;17384;51.214;9.202;2023-03-23T06:38:09;97693.66;;;9.08;86.16
30618;BME280;17384;51.214;9.202;2023-03-23T06:40:35;97697.53;;;9.12;86.25
30618;BME280;17384;51.214;9.202;2023-03-23T06:43:01;97699.66;;;9.10;86.73
30618;BME280;17384;51.214;9.202;2023-03-23T06:45:27;97688.50;;;9.19;85.86
30618;BME280;17384;51.214;9.202;2023-03-23T06:47:52;97693.44;;;9.22;85.77
30618;BME280;17384;51.214;9.202;2023-03-23T06:50:18;97694.97;;;9.18;85.82
30618;BME280;17384;51.214;9.202;2023-03-23T06:52:48;97688.41;;;9.25;85.99
30618;BME280;17384;51.214;9.202;2023-03-23T06:55:14;97682.50;;;9.28;85.36
30618;BME280;17384;51.214;9.202;2023-03-23T06:57:40;97684.03;;;9.36;85.25
30618;BME280;17384;51.214;9.202;2023-03-23T07:00:06;97686.59;;;9.31;85.44
30618;BME280;17384;51.214;9.202;2023-03-23T07:02:34;97673.91;;;9.31;85.68
30618;BME280;17384;51.214;9.202;2023-03-23T07:05:00;97692.38;;;9.23;86.02
30618;BME280;17384;51.214;9.202;2023-03-23T07:07:26;97699.44;;;9.12;86.38
30618;BME280;17384;51.214;9.202;2023-03-23T07:09:52;97686.50;;;9.14;86.39
30618;BME280;17384;51.214;9.202;2023-03-23T07:12:17;97697.66;;;9.18;85.80
30618;BME280;17384;51.214;9.202;2023-03-23T07:14:42;97693.91;;;9.19;86.39
30618;BME280;17384;51.214;9.202;2023-03-23T07:17:08;97687.56;;;9.25;86.08
30618;BME280;17384;51.214;9.202;2023-03-23T07:19:34;97689.91;;;9.21;86.94
30618;BME280;17384;51.214;9.202;2023-03-23T07:22:01;97708.03;;;9.21;86.63
30618;BME280;17384;51.214;9.202;2023-03-23T07:24:26;97708.03;;;9.21;86.58
30618;BME280;17384;51.214;9.202;2023-03-23T07:26:52;97697.94;;;9.28;85.94
30618;BME280;17384;51.214;9.202;2023-03-23T07:29:18;97712.16;;;9.35;85.74
30618;BME280;17384;51.214;9.202;2023-03-23T07:31:44;97702.38;;;9.34;86.11
30618;BME280;17384;51.214;9.202;2023-03-23T07:34:09;97718.28;;;9.42;85.77
30618;BME280;17384;51.214;9.202;2023-03-23T07:36:35;97705.47;;;9.49;85.78
30618;BME280;17384;51.214;9.202;2023-03-23T07:39:03;97707.91;;;9.62;84.75
30618;BME280;17384;51.214;9.202;2023-03-23T07:41:31;97692.63;;;9.68;84.52
30618;BME280;17384;51.214;9.202;2023-03-23T07:43:57;97710.28;;;9.82;84.29
30618;BME280;17384;51.214;9.202;2023-03-23T07:46:22;97715.78;;;9.87;84.08
30618;BME280;17384;51.214;9.202;2023-03-23T07:48:47;97708.13;;;9.96;84.41
30618;BME280;17384;51.214;9.202;2023-03-23T07:51:14;97714.38;;;9.96;84.37
30618;BME280;17384;51.214;9.202;2023-03-23T07:53:42;97719.53;;;9.98;83.60
30618;BME280;17384;51.214;9.202;2023-03-23T07:56:10;97720.69;;;10.13;83.11
30618;BME280;17384;51.214;9.202;2023-03-23T07:58:37;97728.47;;;10.22;82.27
30618;BME280;17384;51.214;9.202;2023-03-23T08:01:02;97708.09;;;10.19;80.38
30618;BME280;17384;51.214;9.202;2023-03-23T08:03:28;97733.66;;;10.23;81.04
30618;BME280;17384;51.214;9.202;2023-03-23T08:05:57;97732.72;;;10.29;81.81
30618;BME280;17384;51.214;9.202;2023-03-23T08:08:24;97718.69;;;10.32;81.84
30618;BME280;17384;51.214;9.202;2023-03-23T08:10:50;97714.25;;;10.43;79.72
30618;BME280;17384;51.214;9.202;2023-03-23T08:13:15;97718.16;;;10.47;79.09
30618;BME280;17384;51.214;9.202;2023-03-23T08:15:41;97727.59;;;10.44;78.95
30618;BME280;17384;51.214;9.202;2023-03-23T08:18:07;97728.84;;;10.54;79.05
30618;BME280;17384;51.214;9.202;2023-03-23T08:20:33;97722.81;;;10.63;79.36
30618;BME280;17384;51.214;9.202;2023-03-23T08:22:59;97743.69;;;10.63;78.68
30618;BME280;17384;51.214;9.202;2023-03-23T08:25:25;97739.41;;;10.67;77.56
30618;BME280;17384;51.214;9.202;2023-03-23T08:27:52;97735.34;;;10.81;77.63
30618;BME280;17384;51.214;9.202;2023-03-23T08:30:19;97739.31;;;10.90;77.09
30618;BME280;17384;51.214;9.202;2023-03-23T08:32:46;97745.88;;;10.94;76.48
30618;BME280;17384;51.214;9.202;2023-03-23T08:35:13;97741.28;;;10.95;76.18
30618;BME280;17384;51.214;9.202;2023-03-23T08:37:40;97735.03;;;10.94;76.57
30618;BME280;17384;51.214;9.202;2023-03-23T08:40:10;97753.97;;;10.89;75.61
30618;BME280;17384;51.214;9.202;2023-03-23T08:42:40;97745.41;;;10.97;76.23
30618;BME280;17384;51.214;9.202;2023-03-23T08:45:07;97744.81;;;10.95;76.16
30618;BME280;17384;51.214;9.202;2023-03-23T08:47:35;97754.59;;;10.96;76.73
30618;BME280;17384;51.214;9.202;2023-03-23T08:50:02;97748.56;;;11.06;75.70
30618;BME280;17384;51.214;9.202;2023-03-23T08:52:28;97751.84;;;11.08;76.28
30618;BME280;17384;51.214;9.202;2023-03-23T08:54:54;97759.75;;;11.09;76.68
30618;BME280;17384;51.214;9.202;2023-03-23T08:57:20;97754.66;;;11.13;75.92
30618;BME280;17384;51.214;9.202;2023-03-23T08:59:46;97744.88;;;11.12;75.07
30618;BME280;17384;51.214;9.202;2023-03-23T09:02:12;97745.44;;;11.14;74.91
30618;BME280;17384;51.214;9.202;2023-03-23T09:04:39;97743.41;;;11.21;75.39
30618;BME280;17384;51.214;9.202;2023-03-23T09:07:08;97750.06;;;11.13;75.96
30618;BME280;17384;51.214;9.202;2023-03-23T09:09:36;97722.91;;;11.13;74.18
30618;BME280;17384;51.214;9.202;2023-03-23T09:12:02;97740.34;;;11.17;74.29
30618;BME280;17384;51.214;9.202;2023-03-23T09:14:28;97737.69;;;11.23;74.22
30618;BME280;17384;51.214;9.202;2023-03-23T09:16:53;97737.97;;;11.38;73.86
30618;BME280;17384;51.214;9.202;2023-03-23T09:19:19;97741.13;;;11.46;72.76
30618;BME280;17384;51.214;9.202;2023-03-23T09:21:45;97735.97;;;11.50;71.79
30618;BME280;17384;51.214;9.202;2023-03-23T09:24:11;97745.63;;;11.58;72.20
30618;BME280;17384;51.214;9.202;2023-03-23T09:26:37;97742.16;;;11.62;72.65
30618;BME280;17384;51.214;9.202;2023-03-23T09:29:02;97730.81;;;11.65;73.41
30618;BME280;17384;51.214;9.202;2023-03-23T09:31:28;97745.63;;;11.58;71.77
30618;BME280;17384;51.214;9.202;2023-03-23T09:33:57;97733.44;;;11.60;71.91
30618;BME280;17384;51.214;9.202;2023-03-23T09:36:24;97743.81;;;11.63;71.80
30618;BME280;17384;51.214;9.202;2023-03-23T09:38:51;97738.72;;;11.67;71.63
30618;BME280;17384;51.214;9.202;2023-03-23T09:49:44;97762.41;;;11.71;70.48
30618;BME280;17384;51.214;9.202;2023-03-23T09:52:14;97749.97;;;11.75;70.58
30618;BME280;17384;51.214;9.202;2023-03-23T09:54:43;97743.97;;;11.73;69.20
30618;BME280;17384;51.214;9.202;2023-03-23T10:00:14;97748.84;;;12.10;69.67
30618;BME280;17384;51.214;9.202;2023-03-23T10:02:52;97752.16;;;12.12;69.15
30618;BME280;17384;51.214;9.202;2023-03-23T10:08:00;97761.03;;;12.24;70.97
30618;BME280;17384;51.214;9.202;2023-03-23T10:10:36;97740.94;;;12.08;68.10
30618;BME280;17384;51.214;9.202;2023-03-23T10:13:12;97741.44;;;12.05;70.08
30618;BME280;17384;51.214;9.202;2023-03-23T10:15:43;97754.78;;;12.07;68.14
30618;BME280;17384;51.214;9.202;2023-03-23T10:18:17;97747.41;;;12.02;67.93
30618;BME280;17384;51.214;9.202;2023-03-23T10:20:48;97769.72;;;12.04;68.87
30618;BME280;17384;51.214;9.202;2023-03-23T10:26:08;97786.59;;;12.23;68.40
30618;BME280;17384;51.214;9.202;2023-03-23T10:28:43;97779.16;;;12.18;67.12
30618;BME280;17384;51.214;9.202;2023-03-23T10:31:31;97791.94;;;12.18;67.81
30618;BME280;17384;51.214;9.202;2023-03-23T10:34:03;97783.72;;;12.13;66.51
30618;BME280;17384;51.214;9.202;2023-03-23T10:39:28;97763.34;;;12.15;63.97
30618;BME280;17384;51.214;9.202;2023-03-23T10:41:55;97795.66;;;12.12;63.59
30618;BME280;17384;51.214;9.202;2023-03-23T10:44:24;97783.78;;;12.18;63.24
30618;BME280;17384;51.214;9.202;2023-03-23T10:49:25;97793.09;;;12.22;62.45
30618;BME280;17384;51.214;9.202;2023-03-23T10:55:23;97791.53;;;12.26;62.19
30618;BME280;17384;51.214;9.202;2023-03-23T10:58:04;97784.78;;;12.12;62.89
30618;BME280;17384;51.214;9.202;2023-03-23T11:00:31;97768.78;;;12.15;64.02
30618;BME280;17384;51.214;9.202;2023-03-23T11:03:01;97783.78;;;12.18;61.50
30618;BME280;17384;51.214;9.202;2023-03-23T11:06:04;97770.63;;;12.32;62.31
30618;BME280;17384;51.214;9.202;2023-03-23T11:08:35;97772.59;;;12.36;63.61
30618;BME280;17384;51.214;9.202;2023-03-23T11:13:39;97784.38;;;12.64;64.30
30618;BME280;17384;51.214;9.202;2023-03-23T11:16:08;97780.41;;;12.49;61.45
30618;BME280;17384;51.214;9.202;2023-03-23T11:18:41;97791.38;;;12.38;63.42
30618;BME280;17384;51.214;9.202;2023-03-23T11:21:12;97786.78;;;12.38;63.19
30618;BME280;17384;51.214;9.202;2023-03-23T11:23:40;97793.50;;;12.14;63.84
30618;BME280;17384;51.214;9.202;2023-03-23T11:28:41;97790.22;;;12.12;66.12
30618;BME280;17384;51.214;9.202;2023-03-23T11:31:08;97778.97;;;12.03;65.98
30618;BME280;17384;51.214;9.202;2023-03-23T11:33:47;97790.63;;;12.04;66.66
30618;BME280;17384;51.214;9.202;2023-03-23T11:36:13;97784.41;;;12.03;65.99
30618;BME280;17384;51.214;9.202;2023-03-23T11:38:39;97775.91;;;12.00;66.64
30618;BME280;17384;51.214;9.202;2023-03-23T11:41:18;97793.94;;;12.06;66.85
30618;BME280;17384;51.214;9.202;2023-03-23T11:43:46;97787.03;;;11.98;66.24
30618;BME280;17384;51.214;9.202;2023-03-23T11:49:25;97806.44;;;12.07;67.17
30618;BME280;17384;51.214;9.202;2023-03-23T11:51:58;97797.72;;;12.05;66.38
30618;BME280;17384;51.214;9.202;2023-03-23T11:54:31;97801.47;;;11.99;66.83
30618;BME280;17384;51.214;9.202;2023-03-23T11:56:59;97811.50;;;11.98;66.74
30618;BME280;17384;51.214;9.202;2023-03-23T11:59:35;97817.53;;;12.00;68.08
30618;BME280;17384;51.214;9.202;2023-03-23T12:04:54;97805.88;;;11.71;69.03
30618;BME280;17384;51.214;9.202;2023-03-23T12:07:40;97813.13;;;11.66;69.68
30618;BME280;17384;51.214;9.202;2023-03-23T12:31:39;97787.34;;;12.40;69.00
30618;BME280;17384;51.214;9.202;2023-03-23T12:42:35;97777.34;;;12.24;70.05
30618;BME280;17384;51.214;9.202;2023-03-23T12:47:55;97775.25;;;11.93;70.63
30618;BME280;17384;51.214;9.202;2023-03-23T12:50:42;97796.25;;;11.80;71.22
30618;BME280;17384;51.214;9.202;2023-03-23T12:53:23;97776.09;;;11.76;70.79
30618;BME280;17384;51.214;9.202;2023-03-23T12:56:08;97783.75;;;11.79;72.18
30618;BME280;17384;51.214;9.202;2023-03-23T12:58:48;97794.38;;;11.81;71.56
30618;BME280;17384;51.214;9.202;2023-03-23T13:01:23;97779.22;;;12.02;72.11
30618;BME280;17384;51.214;9.202;2023-03-23T13:04:10;97774.06;;;12.05;70.38
30618;BME280;17384;51.214;9.202;2023-03-23T13:06:41;97768.97;;;12.09;70.01
30618;BME280;17384;51.214;9.202;2023-03-23T13:12:02;97758.00;;;12.42;69.38
30618;BME280;17384;51.214;9.202;2023-03-23T13:17:34;97758.13;;;12.31;68.63
30618;BME280;17384;51.214;9.202;2023-03-23T13:20:02;97747.75;;;12.49;68.27
30618;BME280;17384;51.214;9.202;2023-03-23T13:22:52;97749.41;;;12.50;68.31
30618;BME280;17384;51.214;9.202;2023-03-23T13:28:04;97757.66;;;12.61;69.23
30618;BME280;17384;51.214;9.202;2023-03-23T13:30:30;97749.72;;;12.54;67.50
30618;BME280;17384;51.214;9.202;2023-03-23T13:33:10;97758.38;;;12.73;68.20
30618;BME280;17384;51.214;9.202;2023-03-23T13:35:38;97776.84;;;12.71;66.80
30618;BME280;17384;51.214;9.202;2023-03-23T13:38:27;97747.53;;;12.78;66.41
30618;BME280;17384;51.214;9.202;2023-03-23T13:40:54;97739.31;;;12.73;65.74
30618;BME280;17384;51.214;9.202;2023-03-23T13:43:29;97752.09;;;12.72;66.55
30618;BME280;17384;51.214;9.202;2023-03-23T13:49:16;97750.97;;;12.68;66.76
30618;BME280;17384;51.214;9.202;2023-03-23T13:51:59;97758.06;;;12.69;65.88
30618;BME280;17384;51.214;9.202;2023-03-23T13:56:58;97769.44;;;12.66;65.65
30618;BME280;17384;51.214;9.202;2023-03-23T14:01:52;97775.84;;;12.77;66.40
30618;BME280;17384;51.214;9.202;2023-03-23T14:04:19;97770.19;;;12.83;65.75
30618;BME280;17384;51.214;9.202;2023-03-23T14:06:49;97760.66;;;12.81;64.47
30618;BME280;17384;51.214;9.202;2023-03-23T14:09:19;97760.72;;;12.91;64.66
30618;BME280;17384;51.214;9.202;2023-03-23T14:11:59;97757.56;;;12.99;65.15
30618;BME280;17384;51.214;9.202;2023-03-23T14:14:39;97754.97;;;12.87;64.19
30618;BME280;17384;51.214;9.202;2023-03-23T14:17:21;97743.25;;;12.87;64.71
30618;BME280;17384;51.214;9.202;2023-03-23T14:19:50;97747.59;;;12.83;63.81
30618;BME280;17384;51.214;9.202;2023-03-23T14:22:23;97741.69;;;12.91;63.28
30618;BME280;17384;51.214;9.202;2023-03-23T14:24:49;97747.50;;;13.00;63.70
30618;BME280;17384;51.214;9.202;2023-03-23T14:27:19;97742.19;;;13.15;62.88
30618;BME280;17384;51.214;9.202;2023-03-23T14:29:46;97742.56;;;13.24;63.94
30618;BME280;17384;51.214;9.202;2023-03-23T14:32:23;97729.25;;;13.00;62.97
30618;BME280;17384;51.214;9.202;2023-03-23T14:34:51;97744.97;;;12.93;62.78
30618;BME280;17384;51.214;9.202;2023-03-23T14:37:17;97751.59;;;13.02;64.34
30618;BME280;17384;51.214;9.202;2023-03-23T14:39:48;97755.47;;;13.06;63.48
30618;BME280;17384;51.214;9.202;2023-03-23T14:42:16;97751.16;;;13.10;64.18
30618;BME280;17384;51.214;9.202;2023-03-23T14:44:50;97741.34;;;13.09;62.60
30618;BME280;17384;51.214;9.202;2023-03-23T14:47:23;97740.63;;;13.19;63.01
30618;BME280;17384;51.214;9.202;2023-03-23T14:49:58;97753.41;;;13.18;62.70
30618;BME280;17384;51.214;9.202;2023-03-23T14:52:28;97759.22;;;13.27;62.31
30618;BME280;17384;51.214;9.202;2023-03-23T14:55:06;97745.03;;;13.25;63.20
30618;BME280;17384;51.214;9.202;2023-03-23T14:57:32;97753.47;;;13.24;63.87
30618;BME280;17384;51.214;9.202;2023-03-23T15:00:00;97741.56;;;13.30;63.29
30618;BME280;17384;51.214;9.202;2023-03-23T15:02:32;97747.88;;;13.35;63.27